Time;durP1;ratioP1;P1;durP2;ratioP2;P2;SDS_P1;SDS_P2;PMS_P1;PMS_P2;Temp;Humidity;BMP_temperature;BMP_pressure;BME280_temperature;BME280_humidity;BME280_pressure;Samples;Min_cycle;Max_cycle;Signal;HPM_P1;HPM_P2
2022/07/15 00:01:39;;;;;;;;;7.00;6.00;;;;;23.30;39.73;101658.47;4979962;28;45401;-63
2022/07/15 00:04:04;;;;;;;;;8.00;7.00;;;;;23.36;39.86;101679.34;4978909;28;45480;-64
2022/07/15 00:06:32;;;;;;;;;2.67;2.67;;;;;23.30;40.11;101675.59;4980087;28;45340;-63
2022/07/15 00:08:57;;;;;;;;;6.00;6.00;;;;;23.34;40.02;101687.72;4979574;28;46506;-63
2022/07/15 00:11:23;;;;;;;;;6.00;5.33;;;;;23.28;40.43;101685.81;4978291;28;45462;-64
2022/07/15 00:13:48;;;;;;;;;4.67;4.67;;;;;23.33;40.31;101686.03;4979448;28;45273;-64
2022/07/15 00:16:14;;;;;;;;;6.00;6.00;;;;;23.33;40.12;101686.03;4979247;28;45394;-65
2022/07/15 00:18:40;;;;;;;;;6.00;6.00;;;;;23.15;40.14;101664.06;4979659;28;47565;-63
2022/07/15 00:21:05;;;;;;;;;3.00;3.00;;;;;23.23;40.76;101695.63;4979534;28;45458;-63
2022/07/15 00:23:31;;;;;;;;;7.67;7.67;;;;;23.23;40.68;101690.19;4979690;28;45503;-63
2022/07/15 00:25:56;;;;;;;;;8.00;6.00;;;;;23.17;40.41;101691.81;4979994;28;45276;-67
2022/07/15 00:28:21;;;;;;;;;3.67;3.00;;;;;23.04;40.59;101687.22;4979188;28;46879;-64
2022/07/15 00:30:47;;;;;;;;;6.33;5.33;;;;;23.12;40.76;101704.34;4977813;28;46063;-63
2022/07/15 00:33:13;;;;;;;;;7.67;6.33;;;;;23.18;40.83;101711.66;4979384;28;45304;-63
2022/07/15 00:35:38;;;;;;;;;3.67;3.00;;;;;23.09;40.62;101683.06;4979912;28;45492;-63
2022/07/15 00:38:07;;;;;;;;;8.00;5.67;;;;;23.10;40.44;101682.84;4979041;28;46510;-63
2022/07/15 00:40:40;;;;;;;;;4.67;4.67;;;;;22.68;40.26;101605.28;4979157;28;45265;-62
2022/07/15 00:43:05;;;;;;;;;6.00;5.00;;;;;23.18;40.74;101704.34;4979073;28;45440;-63
2022/07/15 00:45:31;;;;;;;;;7.67;6.33;;;;;23.20;40.82;101699.56;4979432;28;45445;-62
2022/07/15 00:47:57;;;;;;;;;6.67;5.00;;;;;23.18;40.83;101708.94;4979058;28;46050;-62
2022/07/15 00:50:25;;;;;;;;;6.00;6.00;;;;;22.60;40.93;101619.81;4979322;28;45319;-63
2022/07/15 00:53:18;;;;;;;;;7.00;5.00;;;;;23.16;40.52;101720.00;4979368;28;45278;-62
2022/07/15 00:55:46;;;;;;;;;7.00;6.00;;;;;23.13;40.49;101733.97;4976674;28;45498;-62
2022/07/15 00:58:26;;;;;;;;;5.67;5.67;;;;;23.06;40.98;101727.69;4978810;28;47454;-64
2022/07/15 01:00:54;;;;;;;;;6.33;6.00;;;;;22.99;41.16;101718.69;4979021;28;45512;-63
2022/07/15 01:03:20;;;;;;;;;7.00;7.00;;;;;23.06;40.86;101727.69;4979134;28;45314;-64
2022/07/15 01:05:47;;;;;;;;;9.00;7.67;;;;;23.04;41.26;101735.19;4977571;28;45538;-63
2022/07/15 01:08:14;;;;;;;;;5.00;5.00;;;;;22.78;41.29;101704.16;4978737;28;46569;-63
2022/07/15 01:10:40;;;;;;;;;6.33;5.67;;;;;22.77;41.39;101713.31;4978379;28;45334;-63
2022/07/15 01:13:06;;;;;;;;;5.00;5.00;;;;;22.46;41.64;101670.44;4978587;28;45293;-63
2022/07/15 01:15:32;;;;;;;;;9.67;6.00;;;;;22.86;41.34;101740.31;4978917;28;45563;-63
2022/07/15 01:18:00;;;;;;;;;6.00;5.67;;;;;22.75;41.51;101733.53;4978482;28;46754;-62
2022/07/15 01:20:25;;;;;;;;;5.00;5.00;;;;;22.62;42.07;101722.63;4978511;28;45238;-63
2022/07/15 01:22:51;;;;;;;;;7.00;7.00;;;;;22.64;42.25;101739.56;4978703;28;45467;-64
2022/07/15 01:25:16;;;;;;;;;6.00;5.67;;;;;22.03;42.33;101650.75;4978898;28;45198;-63
2022/07/15 01:27:41;;;;;;;;;6.33;6.00;;;;;22.58;42.25;101757.41;4977122;28;45757;-65
2022/07/15 01:30:07;;;;;;;;;9.33;6.33;;;;;22.55;42.20;101760.53;4978311;28;45487;-62
2022/07/15 01:32:33;;;;;;;;;4.00;4.00;;;;;22.19;42.27;101705.66;4978744;28;45305;-62
2022/07/15 01:34:59;;;;;;;;;4.67;3.33;;;;;22.32;42.61;101747.25;4978642;28;45507;-63
2022/07/15 01:37:25;;;;;;;;;5.00;5.00;;;;;22.01;42.10;101703.41;4978464;28;45493;-62
2022/07/15 01:39:50;;;;;;;;;3.00;3.00;;;;;22.21;42.39;101749.63;4978281;28;45546;-63
2022/07/15 01:42:15;;;;;;;;;4.33;4.33;;;;;21.99;42.54;101727.13;4978300;28;45532;-63
2022/07/15 01:44:41;;;;;;;;;4.00;4.00;;;;;21.82;42.33;101718.44;4978667;28;45237;-62
2022/07/15 01:47:13;;;;;;;;;7.33;7.33;;;;;21.74;42.76;101716.72;5091001;27;45405;-63
2022/07/15 01:49:39;;;;;;;;;5.00;5.00;;;;;22.00;42.45;101756.72;5073734;28;45548;-62
2022/07/15 01:52:05;;;;;;;;;3.67;3.67;;;;;21.99;42.36;101746.09;5074163;28;45302;-63
2022/07/15 01:54:32;;;;;;;;;6.00;6.00;;;;;21.88;42.15;101716.84;5074042;28;45384;-62
2022/07/15 01:56:57;;;;;;;;;6.33;3.33;;;;;21.81;41.94;101716.75;5073676;28;45926;-63
2022/07/15 01:59:24;;;;;;;;;6.00;4.00;;;;;22.00;42.13;101764.84;5073751;27;45237;-62
2022/07/15 02:01:51;;;;;;;;;3.33;3.33;;;;;22.02;41.67;101757.38;5074026;27;45495;-63
2022/07/15 02:04:17;;;;;;;;;4.00;4.00;;;;;21.68;41.97;101697.72;5073897;28;45324;-62
2022/07/15 02:06:43;;;;;;;;;4.67;4.67;;;;;21.90;42.13;101756.22;5073565;28;46142;-63
2022/07/15 02:09:08;;;;;;;;;5.33;4.67;;;;;21.89;41.94;101746.44;5072309;28;45328;-63
2022/07/15 02:11:34;;;;;;;;;4.33;4.33;;;;;21.00;41.95;101590.84;5073617;28;45801;-62
2022/07/15 02:14:00;;;;;;;;;3.00;3.00;;;;;21.91;42.01;101749.78;5074074;28;45627;-62
2022/07/15 02:16:26;;;;;;;;;3.33;3.33;;;;;21.93;41.78;101747.72;5073430;28;46558;-62
2022/07/15 02:18:52;;;;;;;;;3.67;3.00;;;;;21.88;40.91;101771.84;5073472;28;45313;-62
2022/07/15 02:21:18;;;;;;;;;3.33;3.33;;;;;21.70;41.00;101722.72;5073395;28;45392;-63
2022/07/15 02:23:43;;;;;;;;;2.00;2.00;;;;;21.78;41.28;101749.63;5073667;28;45358;-63
2022/07/15 02:26:09;;;;;;;;;4.00;4.00;;;;;21.82;41.35;101757.22;5073298;28;46924;-64
2022/07/15 02:28:34;;;;;;;;;2.67;2.67;;;;;21.72;41.01;101728.78;5073245;28;45327;-62
2022/07/15 02:30:59;;;;;;;;;4.00;4.00;;;;;21.71;40.94;101749.59;5073433;27;45250;-63
2022/07/15 02:33:25;;;;;;;;;4.00;3.00;;;;;21.36;41.23;101697.16;5072250;28;45472;-63
2022/07/15 02:35:50;;;;;;;;;6.67;4.33;;;;;21.46;41.56;101734.75;5073088;28;46450;-64
2022/07/15 02:38:19;;;;;;;;;2.67;2.67;;;;;20.05;41.51;101526.94;5071470;28;45488;-63
2022/07/15 02:40:45;;;;;;;;;5.67;5.00;;;;;21.29;41.13;101728.72;5073420;28;45351;-63
2022/07/15 02:43:10;;;;;;;;;4.00;4.00;;;;;20.73;41.41;101647.31;5073343;28;45455;-63
2022/07/15 02:45:37;;;;;;;;;4.33;3.00;;;;;20.96;41.51;101676.91;5079418;27;46819;-63
2022/07/15 02:48:04;;;;;;;;;4.00;3.00;;;;;20.99;41.58;101675.69;5093103;27;45293;-64
2022/07/15 02:50:30;;;;;;;;;4.00;3.00;;;;;21.50;41.49;101749.56;5093430;27;45227;-63
2022/07/15 02:52:55;;;;;;;;;3.00;2.00;;;;;21.33;41.00;101724.59;5093463;27;45449;-64
2022/07/15 02:55:21;;;;;;;;;3.00;3.00;;;;;21.35;41.44;101735.25;5093467;27;46246;-62
2022/07/15 02:57:46;;;;;;;;;4.00;4.00;;;;;21.42;42.00;101746.97;5084674;27;45549;-63
2022/07/15 03:00:19;;;;;;;;;6.00;4.00;;;;;21.47;41.38;101753.50;5079854;28;45583;-63
2022/07/15 03:02:46;;;;;;;;;5.33;4.00;;;;;21.56;41.29;101759.63;5061662;28;45454;-63
2022/07/15 03:05:12;;;;;;;;;6.00;5.00;;;;;21.58;41.00;101759.41;5079513;27;45304;-63
2022/07/15 03:07:38;;;;;;;;;4.00;4.00;;;;;21.34;40.82;101720.88;5061181;28;45309;-63
2022/07/15 03:10:05;;;;;;;;;4.33;4.33;;;;;21.58;40.96;101770.25;5079533;27;45458;-63
2022/07/15 03:12:31;;;;;;;;;3.00;3.00;;;;;21.20;40.94;101721.72;5079505;27;45624;-63
2022/07/15 03:14:57;;;;;;;;;4.00;4.00;;;;;21.47;41.15;101767.03;5079242;27;46558;-62
2022/07/15 03:17:22;;;;;;;;;4.00;4.00;;;;;21.40;41.33;101763.38;5079281;28;45415;-63
2022/07/15 03:19:48;;;;;;;;;6.00;5.00;;;;;21.34;41.49;101774.97;5079463;28;45256;-63
2022/07/15 03:22:13;;;;;;;;;7.33;5.00;;;;;21.26;41.47;101761.56;5061083;28;45335;-62
2022/07/15 03:24:38;;;;;;;;;4.33;4.33;;;;;21.34;41.70;101779.53;5078596;28;52730;-63
2022/07/15 03:27:03;;;;;;;;;5.00;5.00;;;;;21.24;41.53;101758.22;5079071;28;45381;-63
2022/07/15 03:29:31;;;;;;;;;4.00;4.00;;;;;21.29;41.46;101760.34;5078036;28;45362;-62
2022/07/15 03:31:57;;;;;;;;;4.33;4.33;;;;;21.38;41.45;101765.44;5079315;27;45352;-63
2022/07/15 03:34:26;;;;;;;;;2.67;2.67;;;;;21.40;41.53;101768.78;5060504;28;47371;-62
2022/07/15 03:36:52;;;;;;;;;4.00;4.00;;;;;21.39;41.18;101761.72;5079185;27;45507;-62
2022/07/15 03:39:18;;;;;;;;;3.33;3.33;;;;;21.29;41.20;101744.97;5079003;28;45268;-62
2022/07/15 03:41:43;;;;;;;;;4.67;4.67;;;;;21.34;41.43;101766.84;5079464;27;45368;-63
2022/07/15 03:44:09;;;;;;;;;5.00;3.00;;;;;21.30;41.24;101746.63;5078825;28;46415;-62
2022/07/15 03:46:34;;;;;;;;;3.33;3.33;;;;;21.20;41.62;101743.34;5078770;28;45353;-63
2022/07/15 03:49:00;;;;;;;;;4.00;4.00;;;;;20.86;41.38;101671.81;5079005;27;45264;-63
2022/07/15 03:51:30;;;;;;;;;4.00;4.00;;;;;21.06;41.10;101706.38;5079118;28;45417;-63
2022/07/15 03:54:00;;;;;;;;;3.00;3.00;;;;;21.21;41.64;101758.53;5078424;27;46628;-64
2022/07/15 03:56:27;;;;;;;;;2.00;2.00;;;;;21.11;41.75;101745.34;5078631;27;45241;-63
2022/07/15 03:58:53;;;;;;;;;4.00;4.00;;;;;21.04;41.78;101747.13;5078922;28;45346;-62
2022/07/15 04:01:20;;;;;;;;;2.00;2.00;;;;;20.91;41.95;101752.34;5078866;28;45526;-62
2022/07/15 04:03:46;;;;;;;;;1.33;0.00;;;;;20.84;42.27;101757.66;5043826;28;47330;-63
2022/07/15 04:06:11;;;;;;;;;6.00;6.00;;;;;20.75;42.39;101745.25;5078330;28;45625;-63
2022/07/15 04:08:36;;;;;;;;;4.00;4.00;;;;;20.87;42.38;101762.69;5078313;28;45489;-63
2022/07/15 04:11:02;;;;;;;;;2.00;2.00;;;;;20.36;42.21;101670.69;5078682;27;45618;-63
2022/07/15 04:13:27;;;;;;;;;6.00;4.67;;;;;20.80;42.45;101737.41;5078134;28;45765;-62
2022/07/15 04:15:53;;;;;;;;;4.00;4.00;;;;;20.95;42.34;101762.59;5078239;27;45194;-62
2022/07/15 04:18:18;;;;;;;;;4.33;4.33;;;;;21.02;42.42;101770.78;5078769;28;45262;-63
2022/07/15 04:20:43;;;;;;;;;4.00;4.00;;;;;21.04;42.63;101773.31;5079072;28;45391;-63
2022/07/15 04:23:09;;;;;;;;;5.00;4.00;;;;;20.90;42.47;101756.91;5078166;28;46539;-64
2022/07/15 04:25:35;;;;;;;;;6.00;4.33;;;;;21.07;42.47;101778.34;5078283;27;45425;-62
2022/07/15 04:28:00;;;;;;;;;4.00;4.00;;;;;20.82;42.47;101748.91;5078364;27;45319;-65
2022/07/15 04:30:26;;;;;;;;;6.33;5.00;;;;;20.98;42.65;101769.47;5078500;27;45323;-62
2022/07/15 04:32:51;;;;;;;;;4.00;3.67;;;;;20.80;43.22;101756.34;5078133;28;46213;-63
2022/07/15 04:35:17;;;;;;;;;4.00;4.00;;;;;20.87;43.19;101765.41;5078843;28;45483;-63
2022/07/15 04:37:42;;;;;;;;;6.33;4.00;;;;;20.97;43.32;101778.63;5077873;28;45496;-63
2022/07/15 04:40:09;;;;;;;;;5.67;5.67;;;;;20.76;43.06;101740.69;5077846;28;45428;-65
2022/07/15 04:42:35;;;;;;;;;6.67;6.00;;;;;21.00;43.19;101788.22;5060056;28;46137;-63
2022/07/15 04:45:00;;;;;;;;;6.00;5.67;;;;;20.95;43.15;101796.91;5077799;27;45537;-64
2022/07/15 04:47:34;;;;;;;;;6.00;5.00;;;;;20.71;43.50;101764.75;5078031;28;45311;-63
2022/07/15 04:52:46;;;;;;;;;6.67;4.67;;;;;20.79;43.79;101802.47;5077655;27;45530;-63
2022/07/15 04:55:12;;;;;;;;;5.67;4.67;;;;;20.64;44.10;101789.81;5078136;28;45514;-64
2022/07/15 04:57:38;;;;;;;;;5.33;5.33;;;;;20.63;44.44;101795.41;5078036;28;45222;-63
2022/07/15 05:00:05;;;;;;;;;6.33;5.00;;;;;20.62;44.39;101801.81;5078098;28;45379;-62
2022/07/15 05:02:31;;;;;;;;;4.33;4.33;;;;;20.41;44.78;101761.16;5077550;28;45591;-63
2022/07/15 05:04:56;;;;;;;;;2.67;2.33;;;;;20.68;44.49;101794.84;5077702;28;45361;-62
2022/07/15 05:07:24;;;;;;;;;4.00;4.00;;;;;20.67;44.58;101798.56;5078140;27;45255;-63
2022/07/15 05:09:49;;;;;;;;;5.67;5.67;;;;;20.66;44.68;101803.13;5059715;28;45383;-65
2022/07/15 05:12:15;;;;;;;;;4.67;4.67;;;;;20.55;44.89;101798.16;5077907;28;46044;-62
2022/07/15 05:14:40;;;;;;;;;6.00;4.33;;;;;20.57;44.69;101799.66;5077605;28;45292;-62
2022/07/15 05:17:09;;;;;;;;;8.00;7.00;;;;;20.56;44.74;101808.78;5077545;28;45339;-64
2022/07/15 05:19:35;;;;;;;;;4.67;4.33;;;;;20.15;44.92;101743.47;5077558;28;45510;-62
2022/07/15 05:22:00;;;;;;;;;6.33;6.33;;;;;20.37;45.01;101801.16;5077269;27;46401;-63
2022/07/15 05:24:26;;;;;;;;;4.33;4.33;;;;;20.39;45.42;101800.97;5077431;28;45324;-63
2022/07/15 05:26:51;;;;;;;;;5.67;5.67;;;;;20.50;45.15;101808.69;5077315;28;45474;-62
2022/07/15 05:29:16;;;;;;;;;7.67;5.00;;;;;20.59;45.24;101810.28;5077778;27;45233;-62
2022/07/15 05:31:43;;;;;;;;;5.00;5.00;;;;;20.42;45.48;101795.25;5077258;27;45384;-63
2022/07/15 05:34:08;;;;;;;;;6.00;6.00;;;;;19.96;45.42;101725.91;5058972;28;45444;-63
2022/07/15 05:36:34;;;;;;;;;6.00;6.00;;;;;20.55;45.62;101827.88;5076936;27;45482;-63
2022/07/15 05:38:59;;;;;;;;;8.00;7.00;;;;;20.57;45.46;101831.25;5059252;28;45696;-64
2022/07/15 05:41:25;;;;;;;;;4.00;4.00;;;;;20.59;45.68;101840.84;5076909;27;46564;-63
2022/07/15 05:43:50;;;;;;;;;5.00;5.00;;;;;20.49;45.50;101812.41;5077018;28;45241;-62
2022/07/15 05:46:15;;;;;;;;;5.00;5.00;;;;;20.62;45.50;101828.81;5055239;28;45467;-62
2022/07/15 05:48:41;;;;;;;;;5.67;5.00;;;;;19.52;45.81;101654.75;5055520;28;45522;-62
2022/07/15 05:51:07;;;;;;;;;6.00;6.00;;;;;20.65;45.60;101837.44;5056627;28;46566;-62
2022/07/15 05:53:33;;;;;;;;;5.33;5.00;;;;;20.50;45.85;101797.88;5056829;28;45411;-62
2022/07/15 05:55:59;;;;;;;;;8.33;7.00;;;;;20.51;46.09;101815.78;5056688;28;45268;-63
2022/07/15 05:58:24;;;;;;;;;6.00;6.00;;;;;20.54;46.00;101821.66;5055369;28;45579;-64
2022/07/15 06:00:51;;;;;;;;;6.00;6.00;;;;;20.62;46.06;101832.38;5056355;28;46316;-63
2022/07/15 06:03:16;;;;;;;;;8.67;8.67;;;;;20.02;46.36;101748.63;5056515;28;45200;-64
2022/07/15 06:05:42;;;;;;;;;6.00;5.00;;;;;20.84;46.30;101843.31;5056501;28;45463;-62
2022/07/15 06:08:08;;;;;;;;;8.00;5.00;;;;;21.10;45.50;101829.34;5054846;28;45353;-63
2022/07/15 06:10:34;;;;;;;;;10.00;6.00;;;;;21.35;45.13;101828.06;5056450;28;45915;-63
2022/07/15 06:13:00;;;;;;;;;5.67;4.67;;;;;21.77;44.24;101823.75;5054822;28;45422;-62
2022/07/15 06:15:25;;;;;;;;;6.33;6.33;;;;;22.03;43.77;101828.63;5055887;28;45502;-62
2022/07/15 06:17:51;;;;;;;;;4.00;4.00;;;;;22.41;42.72;101834.63;5056619;28;45474;-61
2022/07/15 06:20:17;;;;;;;;;7.00;7.00;;;;;22.57;42.36;101812.66;5055844;28;46692;-63
2022/07/15 06:22:42;;;;;;;;;6.00;5.00;;;;;23.05;41.25;101834.53;5056122;28;45335;-63
2022/07/15 06:25:08;;;;;;;;;6.00;6.00;;;;;23.34;41.32;101834.25;5056053;28;45492;-62
2022/07/15 06:27:34;;;;;;;;;7.00;5.00;;;;;23.63;40.49;101833.16;5056416;28;45263;-63
2022/07/15 06:30:00;;;;;;;;;5.00;5.00;;;;;23.90;39.97;101823.19;5056328;28;47482;-63
2022/07/15 06:32:25;;;;;;;;;5.00;4.00;;;;;24.25;38.46;101832.03;5055873;28;46285;-63
2022/07/15 06:34:50;;;;;;;;;6.00;6.00;;;;;24.45;38.13;101842.94;5059727;28;45354;-62
2022/07/15 06:37:17;;;;;;;;;7.33;7.00;;;;;24.65;37.39;101845.66;5058716;28;45404;-62
2022/07/15 06:39:42;;;;;;;;;2.00;2.00;;;;;24.76;37.34;101846.88;5059218;28;46372;-63
2022/07/15 06:42:08;;;;;;;;;6.00;6.00;;;;;25.02;37.42;101849.59;5059316;28;45429;-63
2022/07/15 06:44:34;;;;;;;;;6.33;6.33;;;;;25.23;36.87;101845.78;5059784;28;45341;-63
2022/07/15 06:47:00;;;;;;;;;7.00;7.00;;;;;25.43;35.61;101862.06;5077949;28;45479;-64
2022/07/15 06:49:25;;;;;;;;;7.00;5.00;;;;;25.50;35.85;101851.13;5079466;27;46747;-64
2022/07/15 06:51:51;;;;;;;;;6.33;6.00;;;;;25.39;35.17;101790.00;5078478;27;45731;-63
2022/07/15 06:54:18;;;;;;;;;4.00;4.00;;;;;25.91;34.87;101848.03;5078693;27;45310;-62
2022/07/15 06:56:44;;;;;;;;;6.00;6.00;;;;;25.37;34.54;101733.06;5079860;28;45584;-63
2022/07/15 06:59:10;;;;;;;;;6.33;5.67;;;;;26.23;34.56;101852.44;5079151;28;46451;-64
2022/07/15 07:01:36;;;;;;;;;5.33;4.00;;;;;26.40;34.67;101851.91;5079425;27;45280;-64
2022/07/15 07:04:02;;;;;;;;;5.67;5.67;;;;;26.33;33.39;101824.66;5079516;27;45546;-63
2022/07/15 07:06:27;;;;;;;;;7.00;6.00;;;;;26.52;33.11;101852.88;5079295;28;45415;-64
2022/07/15 07:08:53;;;;;;;;;6.00;5.00;;;;;26.56;32.84;101846.72;5079280;27;47255;-64
2022/07/15 07:11:19;;;;;;;;;4.00;4.00;;;;;26.48;33.19;101843.47;5079415;27;45545;-63
2022/07/15 07:13:46;;;;;;;;;6.67;6.67;;;;;26.57;32.90;101832.03;5078923;28;45287;-63
2022/07/15 07:16:12;;;;;;;;;5.00;5.00;;;;;26.83;32.63;101835.56;5079504;27;45503;-64
2022/07/15 07:18:37;;;;;;;;;8.33;3.67;;;;;27.01;32.45;101853.88;5078957;27;46521;-63
2022/07/15 07:21:03;;;;;;;;;6.00;5.67;;;;;27.06;31.58;101867.72;5079498;27;45312;-64
2022/07/15 07:23:30;;;;;;;;;4.67;4.67;;;;;27.11;30.76;101848.75;5079276;27;46164;-63
2022/07/15 07:25:56;;;;;;;;;7.33;5.00;;;;;27.12;30.85;101843.06;5079366;28;45272;-64
2022/07/15 07:28:22;;;;;;;;;5.33;5.33;;;;;27.16;30.83;101854.34;5078849;27;45732;-63
2022/07/15 07:30:49;;;;;;;;;4.00;4.00;;;;;27.20;31.17;101842.75;5079215;28;45462;-64
2022/07/15 07:33:14;;;;;;;;;3.00;3.00;;;;;27.35;30.48;101839.66;5077760;27;45490;-64
2022/07/15 07:35:40;;;;;;;;;7.33;6.33;;;;;27.59;30.10;101846.88;5079309;28;45562;-63
2022/07/15 07:38:05;;;;;;;;;4.00;4.00;;;;;27.54;29.40;101837.72;5079061;27;46468;-62
2022/07/15 07:40:31;;;;;;;;;5.00;5.00;;;;;27.57;29.69;101826.34;5078781;27;45435;-63
2022/07/15 07:42:56;;;;;;;;;4.67;4.00;;;;;27.75;29.47;101844.63;5078795;27;45269;-62
2022/07/15 07:45:23;;;;;;;;;3.00;3.00;;;;;27.81;29.90;101830.84;5078025;27;45348;-63
2022/07/15 07:47:48;;;;;;;;;5.33;5.00;;;;;28.03;29.08;101842.13;5078719;27;47328;-63
2022/07/15 07:50:14;;;;;;;;;7.33;5.00;;;;;28.15;28.62;101831.22;5078436;28;45788;-63
2022/07/15 07:52:40;;;;;;;;;4.00;4.00;;;;;28.11;29.29;101806.25;5078737;28;45243;-62
2022/07/15 07:55:06;;;;;;;;;4.00;4.00;;;;;28.18;28.95;101817.88;5078992;28;45451;-63
2022/07/15 07:57:32;;;;;;;;;5.67;5.67;;;;;28.38;28.38;101827.69;5078499;27;46493;-63
2022/07/15 07:59:58;;;;;;;;;3.67;3.67;;;;;28.47;27.12;101820.84;5060368;28;45946;-63
2022/07/15 08:02:24;;;;;;;;;3.67;2.67;;;;;27.30;27.28;101620.22;5060102;28;45466;-66
2022/07/15 08:04:49;;;;;;;;;3.33;3.00;;;;;28.46;27.10;101798.13;5060930;28;45497;-64
2022/07/15 08:07:15;;;;;;;;;5.00;4.00;;;;;28.60;26.72;101826.06;5079045;28;45865;-65
2022/07/15 08:09:40;;;;;;;;;4.00;4.00;;;;;28.40;26.81;101800.94;5042790;28;45569;-66
2022/07/15 08:12:07;;;;;;;;;2.33;2.33;;;;;28.59;27.00;101815.34;5060121;28;46018;-64
2022/07/15 08:14:32;;;;;;;;;3.00;3.00;;;;;28.59;27.48;101804.41;5078310;27;45465;-64
2022/07/15 08:16:58;;;;;;;;;4.00;2.67;;;;;28.81;26.44;101826.53;5077851;27;45729;-64
2022/07/15 08:19:24;;;;;;;;;5.00;4.00;;;;;28.67;26.67;101813.09;5078156;27;45394;-64
2022/07/15 08:21:50;;;;;;;;;2.00;2.00;;;;;28.72;26.28;101813.22;5078342;27;45273;-64
2022/07/15 08:24:16;;;;;;;;;3.00;3.00;;;;;28.69;26.08;101775.38;5059819;28;45699;-64
2022/07/15 08:26:42;;;;;;;;;3.67;3.67;;;;;28.95;26.12;101812.38;5077463;28;46686;-64
2022/07/15 08:29:07;;;;;;;;;3.33;3.33;;;;;29.17;26.28;101814.50;5059292;28;45275;-64
2022/07/15 08:31:35;;;;;;;;;4.00;4.00;;;;;28.88;25.96;101748.72;5077579;28;45426;-63
2022/07/15 08:34:02;;;;;;;;;5.33;4.00;;;;;28.96;26.28;101766.69;5078228;27;45325;-64
2022/07/15 08:36:28;;;;;;;;;2.33;2.33;;;;;28.89;25.40;101730.41;5077866;28;45861;-62
2022/07/15 08:38:54;;;;;;;;;2.67;2.67;;;;;29.26;26.21;101808.41;5077722;28;45435;-63
2022/07/15 08:41:19;;;;;;;;;3.00;3.00;;;;;29.41;25.71;101821.56;5077819;27;45378;-65
2022/07/15 08:43:45;;;;;;;;;4.00;3.00;;;;;29.50;25.54;101808.34;5078108;27;45412;-64
2022/07/15 08:46:10;;;;;;;;;2.00;2.00;;;;;29.50;25.82;101797.41;5077219;28;46163;-63
2022/07/15 08:48:37;;;;;;;;;3.67;3.00;;;;;29.83;24.34;101824.03;5077964;27;45186;-63
2022/07/15 08:51:05;;;;;;;;;5.33;3.00;;;;;29.97;25.28;101814.44;5078195;28;45364;-63
2022/07/15 08:53:31;;;;;;;;;4.33;4.33;;;;;30.13;24.67;101786.22;5059312;28;45499;-66
2022/07/15 08:56:00;;;;;;;;;7.00;4.33;;;;;30.30;24.01;101788.97;5076353;28;47019;-64
2022/07/15 08:58:26;;;;;;;;;4.00;2.67;;;;;30.58;23.69;101799.81;5059089;28;46162;-63
2022/07/15 09:00:52;;;;;;;;;4.33;4.00;;;;;30.82;24.14;101799.66;5077880;27;45436;-64
2022/07/15 09:03:17;;;;;;;;;2.00;2.00;;;;;30.97;23.05;101810.84;5077655;27;45451;-67
2022/07/15 09:05:42;;;;;;;;;3.33;3.33;;;;;31.05;23.57;101815.09;5077186;27;45543;-64
2022/07/15 09:08:16;;;;;;;;;4.00;3.33;;;;;31.33;23.68;101800.34;5077078;28;45501;-64
2022/07/15 09:10:47;;;;;;;;;2.67;2.67;;;;;31.63;23.24;101786.09;5077594;28;45640;-64
2022/07/15 09:13:31;;;;;;;;;3.00;3.00;;;;;31.92;21.62;101797.69;5077672;28;45399;-64
2022/07/15 09:16:04;;;;;;;;;3.67;2.00;;;;;31.94;22.09;101801.00;5076354;28;46411;-63
2022/07/15 09:18:35;;;;;;;;;4.67;3.00;;;;;32.08;21.77;101788.50;5059002;28;45529;-64
2022/07/15 09:21:01;;;;;;;;;2.33;2.33;;;;;32.33;21.51;101776.88;5077316;27;45373;-63
2022/07/15 09:23:29;;;;;;;;;4.67;1.33;;;;;32.73;20.81;101792.81;5077066;28;45386;-63
2022/07/15 09:26:00;;;;;;;;;3.00;3.00;;;;;33.00;20.66;101800.16;5076788;28;45998;-64
2022/07/15 09:28:44;;;;;;;;;2.00;2.00;;;;;32.45;20.23;101663.84;5076900;28;45276;-63
2022/07/15 09:34:02;;;;;;;;;2.00;2.00;;;;;33.88;18.74;101791.91;5076984;28;45551;-66
2022/07/15 09:36:32;;;;;;;;;2.00;2.00;;;;;33.71;18.57;101789.38;5076929;27;45457;-64
2022/07/15 09:39:04;;;;;;;;;4.00;4.00;;;;;33.90;18.93;101798.00;5076531;28;45335;-65
2022/07/15 09:41:36;;;;;;;;;2.00;2.00;;;;;34.20;18.64;101794.38;5075636;27;45275;-64
2022/07/15 09:44:07;;;;;;;;;3.00;2.00;;;;;34.64;18.03;101783.56;5058778;28;45490;-64
2022/07/15 09:46:51;;;;;;;;;1.00;1.00;;;;;34.83;17.67;101781.84;5058247;28;46796;-64
2022/07/15 09:49:22;;;;;;;;;2.00;2.00;;;;;34.72;17.23;101797.66;5058536;28;45314;-63
2022/07/15 09:51:51;;;;;;;;;1.00;1.00;;;;;34.49;17.66;101792.75;5077077;27;45396;-64
2022/07/15 09:54:17;;;;;;;;;2.00;2.00;;;;;34.30;17.62;101784.19;5077106;27;45653;-63
2022/07/15 09:56:45;;;;;;;;;1.00;1.00;;;;;33.92;16.99;101782.81;5076825;28;46455;-63
2022/07/15 09:59:11;;;;;;;;;2.00;2.00;;;;;33.43;17.65;101786.00;5076675;27;45397;-64
2022/07/15 10:01:37;;;;;;;;;1.67;1.67;;;;;32.66;17.99;101706.88;5076772;28;45329;-64
2022/07/15 10:04:04;;;;;;;;;2.00;2.00;;;;;32.16;18.15;101647.66;5058230;28;45390;-64
2022/07/15 10:06:33;;;;;;;;;1.00;1.00;;;;;32.89;18.77;101778.06;5075451;27;45722;-64
2022/07/15 10:08:58;;;;;;;;;2.67;1.00;;;;;32.56;18.82;101770.13;5079861;28;45504;-64
2022/07/15 10:11:24;;;;;;;;;2.00;1.00;;;;;32.11;19.15;101779.72;5080478;28;45343;-66
2022/07/15 10:14:15;;;;;;;;;2.00;2.00;;;;;31.68;19.59;101773.25;5062019;27;45533;-64
2022/07/15 10:17:04;;;;;;;;;4.00;1.67;;;;;31.08;19.59;101774.19;5017022;28;47691;-64
2022/07/15 10:20:00;;;;;;;;;3.00;2.33;;;;;30.68;19.54;101776.41;5080105;28;45446;-64
2022/07/15 10:22:47;;;;;;;;;1.67;1.67;;;;;30.19;20.46;101773.41;5080232;27;45404;-64
2022/07/15 10:25:54;;;;;;;;;3.00;2.33;;;;;29.82;20.16;101759.31;5076818;27;45590;-64
2022/07/15 10:28:31;;;;;;;;;0.00;0.00;;;;;29.64;20.45;101766.72;4961509;28;46644;-63
2022/07/15 10:31:13;;;;;;;;;2.00;2.00;;;;;29.30;20.50;101753.97;5070823;28;45388;-64
2022/07/15 10:34:00;;;;;;;;;0.33;0.33;;;;;28.89;20.93;101744.91;5079687;28;45242;-65
2022/07/15 10:36:25;;;;;;;;;1.33;1.33;;;;;28.77;21.12;101750.38;5080092;27;45402;-63
2022/07/15 10:39:03;;;;;;;;;2.67;2.67;;;;;28.59;22.06;101758.72;5079533;27;47133;-62
2022/07/15 10:41:50;;;;;;;;;2.00;0.67;;;;;28.22;21.89;101762.72;5079673;28;45376;-63
2022/07/15 10:44:16;;;;;;;;;2.33;2.33;;;;;27.95;22.71;101735.84;5079740;27;45375;-63
2022/07/15 10:46:41;;;;;;;;;4.00;3.00;;;;;27.94;22.97;101752.47;5079446;28;45508;-62
2022/07/15 10:49:06;;;;;;;;;1.33;1.33;;;;;27.84;22.53;101750.34;5079456;27;46632;-64
2022/07/15 10:51:35;;;;;;;;;2.00;2.00;;;;;27.77;22.91;101738.66;5079674;27;45431;-64
2022/07/15 10:54:04;;;;;;;;;5.00;3.67;;;;;27.73;22.65;101745.66;5079718;28;45256;-65
2022/07/15 10:56:31;;;;;;;;;3.00;2.67;;;;;27.63;22.99;101748.09;5079746;28;45429;-64
2022/07/15 10:59:09;;;;;;;;;1.00;1.00;;;;;27.54;23.44;101734.75;5079431;27;45678;-63
2022/07/15 11:01:36;;;;;;;;;2.00;2.00;;;;;27.30;23.07;101704.88;5079561;27;45291;-64
2022/07/15 11:04:19;;;;;;;;;1.00;1.00;;;;;27.35;23.21;101724.13;5079483;27;45473;-64
2022/07/15 11:07:10;;;;;;;;;1.00;1.00;;;;;26.87;23.75;101663.00;5061049;28;45574;-63
2022/07/15 11:09:53;;;;;;;;;1.00;1.00;;;;;27.19;23.30;101734.59;5079261;28;47314;-64
2022/07/15 11:12:43;;;;;;;;;8.00;7.00;;;;;27.04;23.44;101706.06;5079324;27;45439;-63
2022/07/15 11:15:16;;;;;;;;;1.00;1.00;;;;;27.08;23.14;101735.41;5078933;28;45276;-64
2022/07/15 11:17:51;;;;;;;;;4.00;4.00;;;;;26.97;23.49;101736.94;5078989;27;45553;-63
2022/07/15 11:20:18;;;;;;;;;4.67;4.67;;;;;27.01;23.65;101741.97;5079169;27;46305;-63
2022/07/15 11:22:47;;;;;;;;;2.67;2.67;;;;;26.95;23.53;101730.91;5060998;28;45340;-65
2022/07/15 11:25:32;;;;;;;;;2.00;2.00;;;;;26.89;23.92;101737.28;5079309;28;45506;-63
2022/07/15 11:28:13;;;;;;;;;3.33;3.33;;;;;26.82;24.01;101725.59;5079315;27;45208;-64
2022/07/15 11:30:49;;;;;;;;;8.67;7.00;;;;;26.83;24.14;101716.38;5078845;28;46482;-66
2022/07/15 11:33:16;;;;;;;;;1.00;1.00;;;;;26.85;23.97;101716.97;5079106;27;45467;-64